Time;durP1;ratioP1;P1;durP2;ratioP2;P2;SDS_P1;SDS_P2;PMS_P1;PMS_P2;Temp;Humidity;BMP_temperature;BMP_pressure;BME280_temperature;BME280_humidity;BME280_pressure;Samples;Min_cycle;Max_cycle;Signal;HPM_P1;HPM_P2
2022/06/17 00:01:04;;;;;;;1.63;1.17;;;;;;;16.67;53.15;99253.16;5095653;28;20738;-49
2022/06/17 00:03:33;;;;;;;4.47;1.57;;;;;;;16.58;52.69;99255.06;5095313;28;20291;-48
2022/06/17 00:06:04;;;;;;;1.73;1.30;;;;;;;16.50;51.62;99252.47;5093981;28;20197;-49
2022/06/17 00:08:37;;;;;;;3.53;1.00;;;;;;;16.51;50.93;99256.75;5096729;28;20245;-49
2022/06/17 00:11:13;;;;;;;2.90;1.27;;;;;;;16.46;52.35;99256.44;5094339;28;20199;-49
2022/06/17 00:13:41;;;;;;;3.10;1.30;;;;;;;16.57;53.37;99255.22;5095001;28;20640;-49
2022/06/17 00:16:11;;;;;;;2.37;1.30;;;;;;;16.45;52.10;99254.81;5095062;28;20189;-49
2022/06/17 00:18:39;;;;;;;4.03;1.20;;;;;;;16.51;54.17;99251.47;5094632;28;20256;-49
2022/06/17 00:21:27;;;;;;;1.90;1.10;;;;;;;16.42;52.89;99255.16;5095040;28;20682;-49
2022/06/17 00:23:55;;;;;;;2.97;1.33;;;;;;;16.30;51.77;99252.91;5093541;28;20218;-49
2022/06/17 00:26:24;;;;;;;2.47;1.47;;;;;;;16.27;52.06;99262.97;5094884;28;20530;-49
2022/06/17 00:28:52;;;;;;;3.70;1.30;;;;;;;16.20;52.10;99263.66;5094479;28;20743;-49
2022/06/17 00:31:20;;;;;;;2.77;1.37;;;;;;;16.16;52.47;99256.25;5094936;28;20240;-49
2022/06/17 00:33:48;;;;;;;4.10;1.23;;;;;;;16.15;51.80;99259.88;5094976;28;20209;-49
2022/06/17 00:36:18;;;;;;;1.60;1.00;;;;;;;16.17;52.42;99264.00;5093470;28;20205;-49
2022/06/17 00:39:10;;;;;;;3.00;1.37;;;;;;;16.16;51.91;99256.25;5094912;28;20679;-51
2022/06/17 00:41:39;;;;;;;1.50;1.07;;;;;;;16.19;52.31;99263.81;5094645;28;20284;-51
2022/06/17 00:44:17;;;;;;;3.20;1.40;;;;;;;16.14;52.25;99263.50;5093082;28;20701;-51
2022/06/17 00:46:53;;;;;;;2.93;1.57;;;;;;;16.14;53.78;99264.34;5093222;28;20193;-51
2022/06/17 00:49:27;;;;;;;1.90;1.33;;;;;;;16.12;54.40;99260.22;5092913;28;20307;-52
2022/06/17 00:51:59;;;;;;;1.20;1.10;;;;;;;16.02;54.30;99248.09;5093236;28;20232;-49
2022/06/17 00:54:31;;;;;;;1.77;1.30;;;;;;;16.07;54.06;99253.66;5092795;28;20189;-49
2022/06/17 00:57:00;;;;;;;1.87;1.23;;;;;;;16.01;54.93;99248.25;5092903;28;20190;-49
2022/06/17 00:59:28;;;;;;;4.57;1.47;;;;;;;15.99;55.66;99245.78;5092596;28;20244;-49
2022/06/17 01:02:07;;;;;;;1.40;1.17;;;;;;;15.97;55.58;99246.97;5092811;28;20258;-49
2022/06/17 01:04:42;;;;;;;2.17;1.30;;;;;;;15.96;53.57;99253.22;5092794;28;20223;-49
2022/06/17 01:07:15;;;;;;;1.73;1.23;;;;;;;15.94;53.22;99241.06;5092835;28;20232;-49
2022/06/17 01:10:01;;;;;;;4.03;1.20;;;;;;;15.91;52.82;99244.03;5092602;28;20191;-49
2022/06/17 01:12:36;;;;;;;4.33;1.40;;;;;;;16.01;56.60;99248.25;5092591;28;20200;-49
2022/06/17 01:15:06;;;;;;;2.37;1.30;;;;;;;16.02;55.57;99240.19;5092533;28;20194;-49
2022/06/17 01:17:38;;;;;;;3.83;1.57;;;;;;;16.06;54.37;99238.84;5092359;28;20811;-49
2022/06/17 01:20:09;;;;;;;2.43;1.70;;;;;;;16.08;54.77;99239.50;5092411;28;20251;-49
2022/06/17 01:22:40;;;;;;;3.60;1.60;;;;;;;16.07;55.01;99237.84;5092415;28;20250;-49
2022/06/17 01:25:12;;;;;;;4.63;1.70;;;;;;;16.08;54.38;99236.06;5092273;28;20292;-49
2022/06/17 01:27:42;;;;;;;1.47;1.20;;;;;;;16.03;54.40;99228.66;5092300;28;20351;-49
2022/06/17 01:30:13;;;;;;;2.83;1.67;;;;;;;16.08;54.70;99225.53;5092136;28;20187;-49
2022/06/17 01:32:46;;;;;;;1.83;1.40;;;;;;;16.10;54.54;99231.44;5092590;28;20549;-49
2022/06/17 01:35:14;;;;;;;2.17;1.43;;;;;;;16.14;54.49;99229.28;5092970;28;20548;-49
2022/06/17 01:37:43;;;;;;;1.97;1.40;;;;;;;16.18;54.18;99234.03;5091939;28;20208;-49
2022/06/17 01:40:11;;;;;;;3.13;1.40;;;;;;;16.23;55.11;99230.88;5091965;28;20185;-49
2022/06/17 01:42:39;;;;;;;4.43;1.23;;;;;;;16.31;54.75;99227.38;5092302;28;20192;-51
2022/06/17 01:45:09;;;;;;;4.07;1.50;;;;;;;16.41;58.21;99232.44;5091963;28;20231;-51
2022/06/17 01:47:42;;;;;;;4.43;1.70;;;;;;;16.37;57.75;99239.88;5091739;28;20204;-51
2022/06/17 01:50:14;;;;;;;4.07;1.80;;;;;;;16.41;57.44;99229.78;5091434;28;20200;-49
2022/06/17 01:52:49;;;;;;;1.80;1.30;;;;;;;16.37;56.39;99238.03;5091814;28;20257;-51
2022/06/17 01:55:21;;;;;;;1.40;1.10;;;;;;;16.38;55.86;99242.31;5091643;28;20183;-52
2022/06/17 01:57:54;;;;;;;3.43;1.50;;;;;;;16.34;56.12;99241.03;5091414;28;20218;-51
2022/06/17 02:00:26;;;;;;;2.43;1.47;;;;;;;16.33;55.48;99236.75;5091706;28;20218;-50
2022/06/17 02:03:01;;;;;;;3.07;1.53;;;;;;;16.33;55.53;99242.00;5091941;28;20191;-50
2022/06/17 02:05:33;;;;;;;3.30;1.50;;;;;;;16.32;57.14;99236.94;5091804;28;20533;-49
2022/06/17 02:08:05;;;;;;;8.27;2.00;;;;;;;16.34;57.27;99242.84;5091579;28;20696;-49
2022/06/17 02:10:38;;;;;;;1.77;1.30;;;;;;;16.37;57.00;99245.13;5091716;28;20199;-49
2022/06/17 02:13:10;;;;;;;3.17;1.33;;;;;;;16.46;56.80;99240.63;5091852;28;20193;-49
2022/06/17 02:15:58;;;;;;;2.47;1.50;;;;;;;16.35;56.16;99234.75;5092798;28;20204;-49
2022/06/17 02:18:45;;;;;;;2.43;1.40;;;;;;;16.31;56.99;99246.63;5093032;28;20747;-49
2022/06/17 02:21:36;;;;;;;2.93;1.20;;;;;;;16.29;56.52;99242.56;5093333;28;20679;-49
2022/06/17 02:24:07;;;;;;;1.50;1.40;;;;;;;16.21;55.87;99243.41;5091310;28;20251;-49
2022/06/17 02:26:37;;;;;;;2.60;1.33;;;;;;;16.14;54.83;99239.81;5091125;28;20188;-49
2022/06/17 02:29:07;;;;;;;2.33;1.30;;;;;;;16.13;54.55;99239.00;5090722;28;20228;-49
2022/06/17 02:31:36;;;;;;;2.33;1.70;;;;;;;16.10;55.79;99236.72;5091100;28;20201;-49
2022/06/17 02:34:05;;;;;;;2.00;1.40;;;;;;;16.18;56.33;99235.84;5091106;28;20189;-49
2022/06/17 02:36:41;;;;;;;3.77;1.30;;;;;;;16.09;56.55;99227.16;5091355;28;20612;-49
2022/06/17 02:39:12;;;;;;;3.33;1.80;;;;;;;16.09;58.04;99235.06;5090849;28;20210;-49
2022/06/17 02:41:45;;;;;;;3.70;1.80;;;;;;;15.98;56.66;99230.97;5091225;28;20407;-49
2022/06/17 02:44:18;;;;;;;2.40;1.57;;;;;;;15.94;57.99;99234.94;5090894;28;20206;-49
2022/06/17 02:46:47;;;;;;;2.23;1.50;;;;;;;15.87;56.20;99239.28;5090299;28;20195;-49
2022/06/17 02:49:19;;;;;;;5.90;1.50;;;;;;;15.81;57.77;99247.81;5090667;28;20208;-49
2022/06/17 02:51:48;;;;;;;2.47;1.60;;;;;;;15.75;58.32;99241.41;5091002;28;20683;-49
2022/06/17 02:54:27;;;;;;;3.13;1.53;;;;;;;15.67;59.20;99244.91;5091146;28;20842;-49
2022/06/17 02:57:20;;;;;;;1.70;1.27;;;;;;;15.61;58.59;99251.63;5092624;28;20198;-49
2022/06/17 02:59:50;;;;;;;1.60;1.50;;;;;;;15.59;59.15;99250.97;5090725;28;20188;-49
2022/06/17 03:02:24;;;;;;;4.03;1.67;;;;;;;15.47;58.78;99253.16;5091640;28;20184;-49
2022/06/17 03:05:16;;;;;;;2.47;1.70;;;;;;;15.39;59.71;99247.06;5092119;28;20564;-49
2022/06/17 03:07:45;;;;;;;3.10;1.83;;;;;;;15.33;60.19;99248.56;5090713;28;20262;-49
2022/06/17 03:10:35;;;;;;;2.43;1.50;;;;;;;15.27;61.11;99241.34;5092455;28;20239;-49
2022/06/17 03:13:09;;;;;;;3.93;2.00;;;;;;;15.14;60.58;99249.75;5090719;28;20195;-49
2022/06/17 03:15:40;;;;;;;4.27;1.57;;;;;;;15.10;60.44;99256.31;5090657;28;20303;-49
2022/06/17 03:18:08;;;;;;;5.83;1.80;;;;;;;15.09;61.63;99258.13;5090381;28;20216;-49
2022/06/17 03:20:36;;;;;;;3.83;2.03;;;;;;;15.06;61.54;99255.81;5090738;28;20188;-49
2022/06/17 03:23:09;;;;;;;3.63;1.80;;;;;;;15.04;60.24;99249.91;5090618;28;20692;-49
2022/06/17 03:25:45;;;;;;;2.70;1.70;;;;;;;15.08;60.45;99253.84;5090894;28;20226;-49
2022/06/17 03:28:17;;;;;;;2.03;1.60;;;;;;;15.07;61.48;99252.19;5090162;28;20219;-49
2022/06/17 03:30:48;;;;;;;3.73;2.17;;;;;;;15.03;60.99;99251.72;5090682;28;20223;-49
2022/06/17 03:33:21;;;;;;;2.20;1.87;;;;;;;15.00;61.22;99254.69;5091876;28;20179;-49
2022/06/17 03:35:54;;;;;;;3.80;1.80;;;;;;;15.01;61.47;99250.22;5090709;28;20189;-49
2022/06/17 03:38:30;;;;;;;2.73;1.70;;;;;;;15.02;61.87;99267.63;5089924;28;20644;-49
2022/06/17 03:41:04;;;;;;;3.80;1.60;;;;;;;15.03;61.74;99264.03;5090583;28;20222;-49
2022/06/17 03:43:37;;;;;;;3.73;1.60;;;;;;;15.05;62.52;99264.69;5090205;28;20206;-49
2022/06/17 03:46:08;;;;;;;3.00;1.70;;;;;;;15.12;62.38;99265.69;5090743;28;20196;-49
2022/06/17 03:48:40;;;;;;;4.27;1.97;;;;;;;15.27;61.85;99270.28;5089989;28;20208;-49
2022/06/17 03:51:15;;;;;;;4.20;1.90;;;;;;;15.35;63.33;99272.91;5090501;28;20249;-49
2022/06/17 03:53:45;;;;;;;2.43;1.90;;;;;;;15.34;63.26;99279.16;5090328;28;20194;-49
2022/06/17 03:56:17;;;;;;;2.83;1.83;;;;;;;15.38;63.26;99284.88;5090288;28;20203;-49
2022/06/17 03:58:46;;;;;;;2.97;1.83;;;;;;;15.33;63.21;99288.03;5092326;28;20236;-49
2022/06/17 04:01:17;;;;;;;1.87;1.70;;;;;;;15.29;63.70;99295.44;5093960;28;20214;-49
2022/06/17 04:03:54;;;;;;;2.60;1.97;;;;;;;15.27;64.66;99297.41;5094061;28;20373;-49
2022/06/17 04:06:24;;;;;;;3.23;1.87;;;;;;;15.25;65.08;99303.81;5093975;28;20273;-49
2022/06/17 04:08:56;;;;;;;2.67;1.80;;;;;;;15.26;64.18;99314.19;5093687;28;20226;-49
2022/06/17 04:11:28;;;;;;;4.27;1.90;;;;;;;15.26;63.59;99308.91;5093804;28;20284;-49
2022/06/17 04:14:01;;;;;;;2.30;1.90;;;;;;;15.24;63.90;99307.41;5093991;28;20231;-49
2022/06/17 04:16:35;;;;;;;2.47;2.10;;;;;;;15.24;64.22;99320.56;5093798;28;20196;-49
2022/06/17 04:19:12;;;;;;;2.80;1.97;;;;;;;15.23;64.78;99318.94;5093563;28;20223;-49
2022/06/17 04:21:41;;;;;;;3.87;2.00;;;;;;;15.24;65.38;99316.16;5093766;28;20189;-49
2022/06/17 04:24:14;;;;;;;2.73;1.83;;;;;;;15.23;65.30;99319.75;5093519;28;20224;-49
2022/06/17 04:26:59;;;;;;;3.07;2.07;;;;;;;15.26;65.01;99318.59;5093700;28;20201;-49
2022/06/17 04:29:34;;;;;;;2.43;1.93;;;;;;;15.27;64.82;99321.09;5093260;28;20304;-49
2022/06/17 04:32:09;;;;;;;3.43;1.80;;;;;;;15.27;64.30;99318.44;5093585;28;20286;-49
2022/06/17 04:34:37;;;;;;;3.10;2.07;;;;;;;15.29;64.08;99327.00;5093448;28;20555;-49
2022/06/17 04:37:12;;;;;;;2.53;2.00;;;;;;;15.31;64.48;99326.81;5093521;28;20575;-49
2022/06/17 04:40:02;;;;;;;7.27;2.40;;;;;;;15.28;65.11;99329.78;5074879;28;20277;-49
2022/06/17 04:42:42;;;;;;;3.60;2.10;;;;;;;15.27;65.40;99326.34;5093401;28;20196;-49
2022/06/17 04:45:19;;;;;;;3.87;2.10;;;;;;;15.31;65.33;99325.03;5093591;28;20295;-49
2022/06/17 04:47:48;;;;;;;10.47;3.20;;;;;;;15.33;65.63;99328.31;5092822;28;20694;-49
2022/06/17 04:50:27;;;;;;;8.60;2.80;;;;;;;15.35;64.65;99334.22;5093447;28;20191;-49
2022/06/17 04:52:57;;;;;;;8.53;2.90;;;;;;;15.34;64.49;99337.00;5093137;28;20192;-49
2022/06/17 04:55:32;;;;;;;8.60;2.70;;;;;;;15.43;65.23;99349.19;5094427;28;20272;-49
2022/06/17 04:58:12;;;;;;;8.50;2.77;;;;;;;15.47;66.25;99349.66;5092799;28;20299;-49
2022/06/17 05:00:45;;;;;;;8.77;3.73;;;;;;;15.53;65.92;99350.81;5092962;28;20196;-49
2022/06/17 05:03:13;;;;;;;3.27;2.63;;;;;;;15.58;65.90;99356.41;5092935;28;20288;-49
2022/06/17 05:05:51;;;;;;;4.83;2.10;;;;;;;15.68;64.95;99362.34;5092994;28;20209;-49
2022/06/17 05:08:23;;;;;;;5.13;2.67;;;;;;;15.79;66.63;99362.00;5092842;28;20223;-49
2022/06/17 05:10:57;;;;;;;3.17;2.33;;;;;;;15.84;66.13;99368.56;5092205;28;20204;-49
2022/06/17 05:13:34;;;;;;;3.13;2.03;;;;;;;15.89;65.45;99361.03;5093135;28;20213;-49
2022/06/17 05:16:01;;;;;;;6.20;2.40;;;;;;;15.93;64.79;99352.63;5092956;28;20276;-50
2022/06/17 05:18:29;;;;;;;2.20;2.00;;;;;;;16.01;64.57;99362.28;5092437;28;20298;-49
2022/06/17 05:21:17;;;;;;;3.47;2.27;;;;;;;16.11;64.31;99367.41;5093265;28;20210;-49
2022/06/17 05:23:46;;;;;;;4.07;2.03;;;;;;;16.26;65.07;99364.06;5092920;28;20187;-49
2022/06/17 05:26:14;;;;;;;3.63;2.00;;;;;;;16.37;65.49;99379.50;5092669;28;20217;-49
2022/06/17 05:28:43;;;;;;;2.80;1.90;;;;;;;16.52;64.30;99377.78;5092317;28;20634;-49
2022/06/17 05:31:16;;;;;;;2.50;1.90;;;;;;;16.74;62.91;99378.03;5092941;28;20220;-49
2022/06/17 05:33:50;;;;;;;3.63;1.97;;;;;;;16.99;61.96;99383.19;5092647;28;20277;-49
2022/06/17 05:36:17;;;;;;;2.23;1.70;;;;;;;17.20;62.27;99384.38;5093034;28;20746;-49
2022/06/17 05:38:46;;;;;;;4.00;1.80;;;;;;;17.38;62.57;99384.94;5092304;28;20210;-51
2022/06/17 05:41:16;;;;;;;3.77;2.20;;;;;;;17.80;61.42;99388.03;5092387;28;20652;-49
2022/06/17 05:43:44;;;;;;;2.27;1.93;;;;;;;18.28;60.92;99382.47;5093464;28;20234;-49
2022/06/17 05:46:19;;;;;;;5.37;2.10;;;;;;;18.71;59.92;99388.88;5092269;28;20287;-49
2022/06/17 05:49:22;;;;;;;4.27;2.33;;;;;;;18.94;57.95;99388.75;5050792;28;20299;-49
2022/06/17 05:51:59;;;;;;;2.10;1.90;;;;;;;19.12;56.07;99390.16;5088015;28;20202;-49
2022/06/17 05:54:49;;;;;;;2.37;1.93;;;;;;;19.40;55.40;99386.78;5093473;28;20196;-49
2022/06/17 05:57:18;;;;;;;3.83;2.10;;;;;;;19.59;55.23;99387.97;5092290;28;20196;-49
2022/06/17 05:59:47;;;;;;;5.07;2.30;;;;;;;19.72;55.30;99396.00;5092271;28;20211;-49
2022/06/17 06:02:18;;;;;;;3.73;2.07;;;;;;;19.83;55.40;99391.19;5092232;28;20191;-49
2022/06/17 06:05:00;;;;;;;4.40;2.20;;;;;;;19.83;55.50;99399.97;5091071;28;20451;-49
2022/06/17 06:07:45;;;;;;;3.90;2.30;;;;;;;19.72;54.82;99405.81;5093355;28;20710;-49
2022/06/17 06:10:13;;;;;;;3.10;2.27;;;;;;;19.64;55.61;99401.44;5091511;28;20211;-49
2022/06/17 06:12:57;;;;;;;4.20;2.33;;;;;;;19.57;53.74;99401.41;5092818;28;20547;-49
2022/06/17 06:15:35;;;;;;;2.77;2.20;;;;;;;19.47;54.52;99407.03;5091563;28;20635;-49
2022/06/17 06:18:27;;;;;;;3.27;2.30;;;;;;;19.49;54.72;99398.06;5091258;28;20298;-49
2022/06/17 06:20:55;;;;;;;7.13;2.33;;;;;;;19.45;52.79;99395.81;5091299;28;20201;-49
2022/06/17 06:23:24;;;;;;;5.00;2.30;;;;;;;19.46;55.81;99384.22;5091531;28;20191;-49
2022/06/17 06:25:53;;;;;;;2.90;2.10;;;;;;;19.61;56.79;99385.94;5091416;28;20227;-49
2022/06/17 06:28:23;;;;;;;7.63;2.40;;;;;;;19.74;56.29;99387.88;5091293;28;20675;-49
2022/06/17 06:31:04;;;;;;;3.97;2.30;;;;;;;19.97;57.50;99392.97;5091420;28;20188;-50
2022/06/17 06:33:31;;;;;;;4.30;2.07;;;;;;;20.19;56.14;99391.06;5091461;28;20191;-49
2022/06/17 06:36:00;;;;;;;5.60;2.27;;;;;;;20.44;54.82;99389.78;5091300;28;20189;-49
2022/06/17 06:38:28;;;;;;;4.23;2.20;;;;;;;20.41;55.25;99393.63;5091642;28;20212;-49
2022/06/17 06:40:56;;;;;;;3.77;2.23;;;;;;;20.60;55.38;99399.22;5091435;28;20192;-49
2022/06/17 06:43:23;;;;;;;8.23;2.43;;;;;;;20.70;56.46;99396.19;5092465;28;20207;-49
2022/06/17 06:46:06;;;;;;;2.50;2.13;;;;;;;20.76;56.38;99401.53;5092507;28;20212;-49
2022/06/17 06:48:35;;;;;;;7.33;2.30;;;;;;;20.88;57.19;99398.34;5090923;28;20779;-50
2022/06/17 06:51:03;;;;;;;2.53;2.17;;;;;;;21.06;57.14;99406.56;5091135;28;20741;-47
2022/06/17 06:53:29;;;;;;;8.93;2.47;;;;;;;21.21;53.20;99401.09;5091298;28;20185;-50
2022/06/17 06:55:57;;;;;;;3.40;2.00;;;;;;;21.35;50.66;99412.53;5090945;28;20235;-50
2022/06/17 06:58:26;;;;;;;2.60;2.10;;;;;;;21.24;50.62;99411.31;5090570;28;20239;-50
2022/06/17 07:00:57;;;;;;;2.90;2.30;;;;;;;21.51;50.42;99419.31;5091094;28;20323;-50
2022/06/17 07:03:29;;;;;;;9.37;2.60;;;;;;;21.88;49.25;99420.75;5090978;28;20197;-50
2022/06/17 07:06:01;;;;;;;3.03;2.33;;;;;;;22.16;48.38;99422.38;5090766;28;20216;-50
2022/06/17 07:08:30;;;;;;;4.50;2.33;;;;;;;22.31;47.31;99424.78;5090294;28;20221;-50
2022/06/17 07:10:59;;;;;;;4.37;2.13;;;;;;;22.43;45.67;99428.44;5092026;28;20542;-50
2022/06/17 07:13:27;;;;;;;4.07;2.87;;;;;;;22.65;45.36;99431.69;5092156;28;20197;-50
2022/06/17 07:15:55;;;;;;;7.13;2.47;;;;;;;22.96;44.76;99424.78;5090729;28;20193;-47
2022/06/17 07:18:25;;;;;;;6.00;2.40;;;;;;;23.22;44.45;99431.00;5091691;28;20582;-47
2022/06/17 07:20:56;;;;;;;4.90;2.40;;;;;;;23.34;43.54;99443.66;5092455;28;20197;-47
2022/06/17 07:23:28;;;;;;;4.43;2.20;;;;;;;23.23;44.55;99435.31;5092315;28;20259;-47
2022/06/17 07:25:59;;;;;;;5.93;2.40;;;;;;;23.20;42.90;99438.38;5090839;28;20309;-48
2022/06/17 07:28:27;;;;;;;4.47;2.80;;;;;;;22.61;44.70;99434.97;5092035;28;20223;-48
2022/06/17 07:30:55;;;;;;;7.33;3.10;;;;;;;22.73;44.72;99448.44;5092258;28;20529;-47
2022/06/17 07:33:25;;;;;;;2.50;2.20;;;;;;;22.53;45.24;99442.16;5094168;28;20181;-47
2022/06/17 07:35:57;;;;;;;2.93;2.40;;;;;;;22.35;45.34;99433.97;5095918;28;20209;-48
2022/06/17 07:41:15;;;;;;;5.67;2.43;;;;;;;22.42;44.76;99437.44;5096129;28;20193;-47
2022/06/17 07:43:42;;;;;;;4.00;2.70;;;;;;;22.44;45.65;99439.91;5095965;28;20275;-51
2022/06/17 07:46:10;;;;;;;3.10;2.60;;;;;;;22.52;44.00;99437.84;5095681;28;20207;-51
2022/06/17 07:48:39;;;;;;;6.37;2.50;;;;;;;22.31;45.00;99424.78;5095615;28;20210;-50
2022/06/17 07:51:09;;;;;;;2.70;2.50;;;;;;;22.49;45.43;99426.84;5095819;28;20197;-50
2022/06/17 07:53:41;;;;;;;7.17;2.73;;;;;;;22.42;44.52;99424.97;5095947;28;20553;-51
2022/06/17 07:56:13;;;;;;;3.80;2.80;;;;;;;22.45;44.43;99425.63;5095656;28;20251;-50
2022/06/17 07:58:40;;;;;;;5.60;2.70;;;;;;;22.51;43.93;99424.78;5095069;28;20203;-50
2022/06/17 08:01:09;;;;;;;4.63;2.53;;;;;;;22.45;43.79;99422.94;5095380;28;20211;-50
2022/06/17 08:03:36;;;;;;;5.80;2.67;;;;;;;22.48;43.56;99415.34;5095583;28;20251;-50
2022/06/17 08:06:04;;;;;;;4.47;2.90;;;;;;;22.51;44.59;99416.78;5095453;28;20210;-52
2022/06/17 08:08:34;;;;;;;3.93;2.83;;;;;;;22.69;44.88;99416.09;5095065;28;20206;-52
2022/06/17 08:11:02;;;;;;;7.90;2.77;;;;;;;22.87;43.17;99418.06;5095434;28;20310;-52
2022/06/17 08:13:30;;;;;;;4.57;3.07;;;;;;;22.90;43.00;99412.31;5093777;28;20191;-50
2022/06/17 08:16:05;;;;;;;8.97;2.60;;;;;;;22.71;44.01;99414.06;5095040;28;20187;-50
2022/06/17 08:18:33;;;;;;;5.10;2.97;;;;;;;22.74;45.84;99418.16;5094691;28;20208;-51
2022/06/17 08:21:00;;;;;;;4.97;2.50;;;;;;;22.96;44.87;99422.13;5094893;28;20189;-50
2022/06/17 08:23:28;;;;;;;4.53;2.53;;;;;;;23.13;43.74;99417.13;5094819;28;20218;-50
2022/06/17 08:25:57;;;;;;;5.50;2.50;;;;;;;23.09;44.11;99415.09;5094669;28;20209;-51
2022/06/17 08:28:25;;;;;;;3.50;2.60;;;;;;;23.13;44.07;99417.13;5094703;28;20254;-50
2022/06/17 08:30:56;;;;;;;6.00;2.77;;;;;;;23.17;44.78;99416.69;5094980;28;20193;-50
2022/06/17 08:33:28;;;;;;;5.93;2.53;;;;;;;23.24;44.83;99423.63;5094674;28;20193;-50
2022/06/17 08:35:59;;;;;;;5.63;2.63;;;;;;;23.11;45.13;99426.34;5094649;28;20189;-50
2022/06/17 08:38:29;;;;;;;4.27;2.37;;;;;;;23.30;45.17;99437.97;5092835;28;20653;-51
2022/06/17 08:41:00;;;;;;;3.70;2.30;;;;;;;23.44;43.92;99444.81;5094533;28;20713;-50
2022/06/17 08:43:52;;;;;;;4.17;2.50;;;;;;;23.34;44.32;99449.00;5094306;28;20186;-50
2022/06/17 08:46:35;;;;;;;3.97;2.40;;;;;;;23.19;45.35;99441.28;5094010;28;20266;-52
2022/06/17 08:49:24;;;;;;;6.10;2.70;;;;;;;23.30;45.97;99445.94;5094015;28;20696;-47
2022/06/17 08:52:06;;;;;;;3.13;2.17;;;;;;;23.42;43.62;99438.88;5094246;28;20250;-48
2022/06/17 08:54:46;;;;;;;5.20;2.47;;;;;;;23.55;43.34;99437.16;5093164;28;20212;-48
2022/06/17 08:57:20;;;;;;;2.70;2.27;;;;;;;23.49;44.31;99440.69;5094030;28;20198;-50
2022/06/17 09:00:08;;;;;;;4.53;2.63;;;;;;;23.49;45.28;99438.03;5092693;28;20206;-50
2022/06/17 09:03:02;;;;;;;3.27;2.20;;;;;;;23.71;43.69;99444.63;5094193;28;20193;-50
2022/06/17 09:05:44;;;;;;;3.57;2.20;;;;;;;23.69;44.34;99438.69;5093862;28;20231;-50
2022/06/17 09:08:36;;;;;;;3.07;2.43;;;;;;;23.67;43.40;99434.63;5093503;28;20209;-50
2022/06/17 09:11:17;;;;;;;4.40;2.40;;;;;;;23.77;43.73;99428.78;5093897;28;20274;-50
2022/06/17 09:13:58;;;;;;;6.57;2.37;;;;;;;23.93;42.14;99425.59;5093905;28;20193;-48
2022/06/17 09:16:35;;;;;;;6.83;2.70;;;;;;;23.97;44.04;99432.09;5093783;28;20238;-47
2022/06/17 09:19:03;;;;;;;4.50;2.30;;;;;;;24.14;42.33;99426.25;5093438;28;20234;-50
2022/06/17 09:21:38;;;;;;;4.23;2.20;;;;;;;24.24;41.30;99423.06;5092641;28;20188;-48
2022/06/17 09:24:08;;;;;;;5.40;2.07;;;;;;;24.22;41.82;99417.13;5093817;28;20634;-47
2022/06/17 09:26:41;;;;;;;6.43;2.40;;;;;;;24.23;42.75;99416.09;5093517;28;20211;-49
2022/06/17 09:29:16;;;;;;;3.67;1.90;;;;;;;24.32;42.13;99412.09;5092168;28;20224;-49
2022/06/17 09:31:49;;;;;;;3.97;1.80;;;;;;;24.43;41.66;99405.19;5093691;28;20183;-49
2022/06/17 09:34:22;;;;;;;5.90;2.50;;;;;;;24.65;42.54;99416.25;5093952;28;20602;-48
2022/06/17 09:36:56;;;;;;;4.90;2.30;;;;;;;24.58;39.92;99408.31;5093457;28;20275;-47
2022/06/17 09:39:29;;;;;;;3.13;2.40;;;;;;;24.47;41.49;99409.03;5093200;28;20206;-48
2022/06/17 09:42:04;;;;;;;6.30;2.40;;;;;;;24.50;40.66;99413.94;5093607;28;20198;-48
2022/06/17 09:44:38;;;;;;;3.50;2.37;;;;;;;24.49;41.24;99414.97;5093451;28;20201;-48
2022/06/17 09:47:15;;;;;;;5.80;1.90;;;;;;;24.35;41.74;99417.00;5093249;28;20608;-48
2022/06/17 09:49:48;;;;;;;4.07;2.40;;;;;;;24.57;39.89;99420.00;5093011;28;20243;-48
2022/06/17 09:52:19;;;;;;;5.77;2.60;;;;;;;24.58;40.58;99423.50;5093180;28;20184;-47
2022/06/17 09:54:52;;;;;;;3.40;2.27;;;;;;;24.74;39.88;99420.28;5093082;28;20265;-47
2022/06/17 09:57:24;;;;;;;2.63;2.10;;;;;;;24.75;40.34;99421.06;5092614;28;20244;-48
2022/06/17 09:59:57;;;;;;;4.50;2.10;;;;;;;24.95;39.52;99420.00;5091482;28;20195;-47
2022/06/17 10:02:32;;;;;;;3.57;2.43;;;;;;;24.91;40.16;99403.59;5092955;28;20183;-48
2022/06/17 10:05:01;;;;;;;5.13;2.00;;;;;;;25.09;39.25;99405.44;5092969;28;20194;-48
2022/06/17 10:07:36;;;;;;;3.83;2.00;;;;;;;25.40;38.71;99416.91;5092651;28;20227;-48
2022/06/17 10:10:20;;;;;;;3.07;2.17;;;;;;;25.36;37.97;99415.72;5092458;28;20211;-48
2022/06/17 10:13:02;;;;;;;3.20;1.97;;;;;;;25.47;37.76;99411.47;5092775;28;20203;-48
2022/06/17 10:15:39;;;;;;;3.30;2.07;;;;;;;25.54;38.51;99411.34;5092695;28;20568;-47
2022/06/17 10:18:33;;;;;;;3.75;2.25;;;;;;;25.61;37.76;99418.22;5091067;28;20208;-48
2022/06/17 10:21:15;;;;;;;4.43;2.33;;;;;;;25.52;37.20;99406.25;5092714;28;20192;-48
2022/06/17 10:23:54;;;;;;;5.40;2.23;;;;;;;25.72;38.01;99415.81;5092741;28;20522;-48
2022/06/17 10:26:34;;;;;;;3.07;2.00;;;;;;;25.69;38.34;99414.38;5092551;28;20206;-48
2022/06/17 10:29:42;;;;;;;7.60;2.50;;;;;;;25.83;38.59;99409.66;5091886;28;20209;-50
2022/06/17 10:32:11;;;;;;;4.80;2.50;;;;;;;25.96;37.90;99400.56;5084190;28;20204;-48
2022/06/17 10:34:44;;;;;;;3.93;2.20;;;;;;;25.92;38.15;99405.59;5092469;28;20271;-48
2022/06/17 10:37:13;;;;;;;4.37;2.37;;;;;;;26.03;36.68;99397.75;5092291;28;20228;-48
2022/06/17 10:39:41;;;;;;;3.37;2.30;;;;;;;26.15;37.47;99403.16;5092203;28;20189;-48
2022/06/17 10:42:14;;;;;;;2.87;2.20;;;;;;;26.23;36.60;99397.44;5092289;28;20188;-48
2022/06/17 10:44:45;;;;;;;5.60;2.30;;;;;;;26.57;36.83;99407.47;5092182;28;20212;-48
2022/06/17 10:47:29;;;;;;;3.35;2.22;;;;;;;26.59;36.01;99398.16;5092113;28;20200;-47
2022/06/17 10:50:00;;;;;;;4.50;2.58;;;;;;;26.65;36.18;99399.06;5092143;28;20189;-48
2022/06/17 10:52:38;;;;;;;2.88;1.90;;;;;;;26.78;35.49;99401.47;5092319;28;20202;-48
2022/06/17 10:55:10;;;;;;;2.97;1.73;;;;;;;26.81;35.56;99395.66;5092206;28;20188;-49
2022/06/17 10:57:37;;;;;;;3.08;2.10;;;;;;;26.84;35.51;99388.22;5091936;28;20204;-48
2022/06/17 11:00:23;;;;;;;2.33;1.93;;;;;;;26.97;33.93;99401.31;5091765;28;20582;-48
2022/06/17 11:03:20;;;;;;;4.43;2.43;;;;;;;26.97;35.31;99398.63;5092612;28;20694;-48
2022/06/17 11:05:55;;;;;;;3.57;1.80;;;;;;;26.93;34.17;99400.16;5090923;28;20207;-48
2022/06/17 11:08:26;;;;;;;3.53;1.80;;;;;;;27.08;34.17;99394.25;5093636;28;20210;-48
2022/06/17 11:10:57;;;;;;;2.72;1.88;;;;;;;27.20;33.72;99399.53;5096333;28;20241;-48
2022/06/17 11:13:25;;;;;;;5.05;1.95;;;;;;;27.30;32.85;99393.56;5096113;28;20212;-48
2022/06/17 11:15:55;;;;;;;4.20;1.83;;;;;;;27.32;32.14;99394.13;5096005;28;20647;-48
2022/06/17 11:18:29;;;;;;;5.43;1.90;;;;;;;27.55;32.66;99387.81;5094504;28;20276;-48
2022/06/17 11:21:00;;;;;;;3.78;1.50;;;;;;;27.69;35.68;99390.97;5095920;28;20274;-48
2022/06/17 11:23:51;;;;;;;4.60;2.00;;;;;;;27.67;32.71;99383.19;5096550;28;20283;-49
2022/06/17 11:26:20;;;;;;;8.55;1.90;;;;;;;27.81;34.36;99386.31;5095913;28;20588;-48
2022/06/17 11:28:50;;;;;;;2.38;1.80;;;;;;;27.69;33.37;99380.25;5095774;28;20235;-48
2022/06/17 11:31:41;;;;;;;4.50;1.80;;;;;;;27.84;32.41;99382.34;5095796;28;20182;-48
2022/06/17 11:34:17;;;;;;;2.50;1.67;;;;;;;27.87;32.13;99375.66;5095787;28;20183;-48
2022/06/17 11:36:56;;;;;;;2.55;1.60;;;;;;;28.04;31.68;99381.81;5095840;28;20195;-48
2022/06/17 11:39:32;;;;;;;4.30;1.73;;;;;;;27.83;33.40;99372.69;5095412;28;20203;-48
2022/06/17 11:42:01;;;;;;;3.55;1.85;;;;;;;27.54;32.08;99378.16;5095861;28;20189;-48
2022/06/17 11:44:53;;;;;;;4.15;1.90;;;;;;;27.90;31.97;99373.31;5096132;28;20199;-48
2022/06/17 11:47:24;;;;;;;2.10;1.90;;;;;;;28.02;31.64;99372.41;5095463;28;20196;-48
2022/06/17 11:49:54;;;;;;;2.72;2.03;;;;;;;28.13;31.16;99358.88;5095270;28;20185;-48
2022/06/17 11:52:28;;;;;;;5.35;1.63;;;;;;;28.24;32.18;99359.00;5095397;28;20251;-48
2022/06/17 11:54:58;;;;;;;5.97;1.80;;;;;;;28.58;30.78;99365.03;5095391;28;20560;-48
2022/06/17 11:57:30;;;;;;;3.72;1.85;;;;;;;28.72;31.39;99354.69;5095385;28;20186;-48
2022/06/17 11:59:59;;;;;;;2.92;1.83;;;;;;;28.66;30.80;99350.34;5095198;28;20188;-48
2022/06/17 12:02:28;;;;;;;5.65;2.03;;;;;;;28.49;30.92;99338.91;5095133;28;20234;-48
2022/06/17 12:05:09;;;;;;;2.35;1.65;;;;;;;28.72;31.00;99338.59;5093972;28;20257;-48
2022/06/17 12:07:46;;;;;;;2.20;2.00;;;;;;;28.66;30.88;99342.28;5094912;28;20243;-48